Nearby METAR Reports

 

YSRI - Richmond (aus-Af, Australia
Distance from station: SW 65km
Updated: 18/08/2022 06:00
Clear
Clear
 Wind from ESE
Wind: ESE 6 km/h
Temperature: 4°C
Dew Point: 4°C
Humidity: 100%
Barometer: 1015 hPa
Clouds: Clear
Visibility: 10 km
2022/08/17 20:00 YSRI 172000Z AUTO 11003KT 9999 // NCD 04/04 Q1015 RF00.0/000.0
YWLM - Williamtown Arp, Australia
Distance from station: NE 69km
Updated: 18/08/2022 06:00
Clear
Clear
 Wind from WNW
Wind: WNW 9 km/h
Temperature: 6°C
Wind Chill: 4°C
Dew Point: 6°C
Humidity: 100%
Barometer: 1016 hPa
Clouds: Clear
Visibility: 10 km
2022/08/17 20:00 YWLM 172000Z AUTO 30005KT 9999 // NCD 06/06 Q1016 RF00.0/000.0
 
YSSY - Sydney Intl Airp, Australia
Distance from station: SSW 77km
Updated: 18/08/2022 06:00
Clear
Clear
 Wind from WNW
Wind: WNW 17 km/h
Temperature: 9°C
Wind Chill: 7°C
Dew Point: 7°C
Humidity: 87%
Barometer: 1016 hPa
Summary: Clear
Visibility: greater than 10 km
2022/08/17 20:00 YSSY 172000Z 29009KT CAVOK 09/07 Q1016